sensor_id;sensor_type;location;lat;lon;timestamp;pressure;altitude;pressure_sealevel;temperature;humidity
17764;BME280;22245;52.832;13.816;2023-03-14T00:03:11;98993.19;;;13.19;72.26
17764;BME280;22245;52.832;13.816;2023-03-14T00:06:32;99000.38;;;13.18;72.08
17764;BME280;22245;52.832;13.816;2023-03-14T00:09:53;99005.53;;;13.20;71.75
17764;BME280;22245;52.832;13.816;2023-03-14T00:13:16;99012.72;;;13.20;71.61
17764;BME280;22245;52.832;13.816;2023-03-14T00:16:38;99016.81;;;13.15;71.69
17764;BME280;22245;52.832;13.816;2023-03-14T00:19:59;98996.19;;;13.09;71.51
17764;BME280;22245;52.832;13.816;2023-03-14T00:23:25;98985.88;;;13.06;71.89
17764;BME280;22245;52.832;13.816;2023-03-14T00:26:46;98985.03;;;13.06;71.79
17764;BME280;22245;52.832;13.816;2023-03-14T00:30:10;98978.44;;;13.01;71.88
17764;BME280;22245;52.832;13.816;2023-03-14T00:33:33;98971.63;;;12.99;71.78
17764;BME280;22245;52.832;13.816;2023-03-14T00:36:56;98950.63;;;12.96;71.51
17764;BME280;22245;52.832;13.816;2023-03-14T00:40:18;98950.81;;;12.94;71.32
17764;BME280;22245;52.832;13.816;2023-03-14T00:43:41;98935.16;;;12.91;71.53
17764;BME280;22245;52.832;13.816;2023-03-14T00:47:04;98936.00;;;12.92;70.86
17764;BME280;22245;52.832;13.816;2023-03-14T00:50:26;98909.69;;;12.88;71.30
17764;BME280;22245;52.832;13.816;2023-03-14T00:53:47;98912.91;;;12.84;71.28
17764;BME280;22245;52.832;13.816;2023-03-14T00:57:09;98922.25;;;12.73;71.49
17764;BME280;22245;52.832;13.816;2023-03-14T01:00:30;98926.31;;;12.69;71.28
17764;BME280;22245;52.832;13.816;2023-03-14T01:03:54;98923.41;;;12.64;71.53
17764;BME280;22245;52.832;13.816;2023-03-14T01:07:16;98909.59;;;12.60;71.61
17764;BME280;22245;52.832;13.816;2023-03-14T01:10:38;98907.75;;;12.61;71.43
17764;BME280;22245;52.832;13.816;2023-03-14T01:14:01;98901.13;;;12.56;71.82
17764;BME280;22245;52.832;13.816;2023-03-14T01:17:23;98897.19;;;12.52;71.92
17764;BME280;22245;52.832;13.816;2023-03-14T01:20:46;98882.28;;;12.43;72.59
17764;BME280;22245;52.832;13.816;2023-03-14T01:24:10;98871.22;;;12.46;72.31
17764;BME280;22245;52.832;13.816;2023-03-14T01:27:33;98880.25;;;12.45;72.03
17764;BME280;22245;52.832;13.816;2023-03-14T01:30:54;98902.19;;;12.40;72.67
17764;BME280;22245;52.832;13.816;2023-03-14T01:34:16;98916.56;;;12.39;72.99
17764;BME280;22245;52.832;13.816;2023-03-14T01:37:39;98927.16;;;12.33;73.11
17764;BME280;22245;52.832;13.816;2023-03-14T01:41:07;98947.88;;;12.30;73.29
17764;BME280;22245;52.832;13.816;2023-03-14T01:44:47;98947.03;;;12.30;73.29
17764;BME280;22245;52.832;13.816;2023-03-14T01:48:09;98946.84;;;12.32;73.02
17764;BME280;22245;52.832;13.816;2023-03-14T01:51:34;98961.84;;;12.33;73.12
17764;BME280;22245;52.832;13.816;2023-03-14T01:55:02;98962.78;;;12.25;73.57
17764;BME280;22245;52.832;13.816;2023-03-14T01:58:27;98959.66;;;12.21;73.89
17764;BME280;22245;52.832;13.816;2023-03-14T02:01:54;98972.19;;;12.21;73.98
17764;BME280;22245;52.832;13.816;2023-03-14T02:05:19;98974.41;;;12.17;73.90
17764;BME280;22245;52.832;13.816;2023-03-14T02:08:47;98974.31;;;12.10;74.05
17764;BME280;22245;52.832;13.816;2023-03-14T02:12:16;98956.81;;;12.08;73.98
17764;BME280;22245;52.832;13.816;2023-03-14T02:15:47;98954.50;;;12.05;74.34
17764;BME280;22245;52.832;13.816;2023-03-14T02:19:46;98941.88;;;11.98;74.48
17764;BME280;22245;52.832;13.816;2023-03-14T02:23:31;98929.69;;;12.04;74.46
17764;BME280;22245;52.832;13.816;2023-03-14T02:27:10;98923.22;;;11.98;75.10
17764;BME280;22245;52.832;13.816;2023-03-14T02:30:36;98925.25;;;11.96;74.67
17764;BME280;22245;52.832;13.816;2023-03-14T02:33:59;98928.09;;;11.95;75.37
17764;BME280;22245;52.832;13.816;2023-03-14T02:37:23;98907.41;;;11.97;74.89
17764;BME280;22245;52.832;13.816;2023-03-14T02:40:47;98895.09;;;11.96;75.15
17764;BME280;22245;52.832;13.816;2023-03-14T02:44:10;98904.53;;;11.98;75.13
17764;BME280;22245;52.832;13.816;2023-03-14T02:47:32;98899.94;;;11.92;75.03
17764;BME280;22245;52.832;13.816;2023-03-14T02:50:56;98885.22;;;11.96;74.96
17764;BME280;22245;52.832;13.816;2023-03-14T02:54:19;98884.03;;;11.99;74.84
17764;BME280;22245;52.832;13.816;2023-03-14T02:57:43;98886.06;;;11.97;75.21
17764;BME280;22245;52.832;13.816;2023-03-14T03:01:07;98874.56;;;11.96;74.99
17764;BME280;22245;52.832;13.816;2023-03-14T03:04:28;98880.53;;;11.98;74.63
17764;BME280;22245;52.832;13.816;2023-03-14T03:07:50;98865.91;;;11.94;74.96
17764;BME280;22245;52.832;13.816;2023-03-14T03:11:12;98854.59;;;11.92;75.12
17764;BME280;22245;52.832;13.816;2023-03-14T03:14:33;98845.59;;;11.93;75.27
17764;BME280;22245;52.832;13.816;2023-03-14T03:17:58;98837.59;;;11.93;74.74
17764;BME280;22245;52.832;13.816;2023-03-14T03:21:19;98834.91;;;11.93;74.72
17764;BME280;22245;52.832;13.816;2023-03-14T03:24:43;98822.59;;;11.92;75.13
17764;BME280;22245;52.832;13.816;2023-03-14T03:28:05;98810.91;;;11.93;75.13
17764;BME280;22245;52.832;13.816;2023-03-14T03:31:31;98803.91;;;11.92;74.57
17764;BME280;22245;52.832;13.816;2023-03-14T03:34:54;98806.75;;;11.91;75.02
17764;BME280;22245;52.832;13.816;2023-03-14T03:38:16;98808.63;;;11.90;74.54
17764;BME280;22245;52.832;13.816;2023-03-14T03:41:39;98818.66;;;11.88;74.86
17764;BME280;22245;52.832;13.816;2023-03-14T03:45:02;98814.50;;;11.85;74.88
17764;BME280;22245;52.832;13.816;2023-03-14T03:48:26;98828.03;;;11.84;74.84
17764;BME280;22245;52.832;13.816;2023-03-14T03:51:49;98825.53;;;11.82;74.50
17764;BME280;22245;52.832;13.816;2023-03-14T03:55:12;98823.81;;;11.75;74.71
17764;BME280;22245;52.832;13.816;2023-03-14T03:58:35;98830.53;;;11.70;75.33
17764;BME280;22245;52.832;13.816;2023-03-14T04:01:59;98835.47;;;11.73;75.39
17764;BME280;22245;52.832;13.816;2023-03-14T04:05:21;98824.16;;;11.71;74.97
17764;BME280;22245;52.832;13.816;2023-03-14T04:08:51;98829.25;;;11.66;74.64
17764;BME280;22245;52.832;13.816;2023-03-14T04:12:35;98816.91;;;11.65;75.21
17764;BME280;22245;52.832;13.816;2023-03-14T04:16:08;98816.84;;;11.58;74.78
17764;BME280;22245;52.832;13.816;2023-03-14T04:19:31;98826.03;;;11.56;75.18
17764;BME280;22245;52.832;13.816;2023-03-14T04:22:53;98847.84;;;11.60;74.52
17764;BME280;22245;52.832;13.816;2023-03-14T04:26:16;98805.09;;;11.53;74.68
17764;BME280;22245;52.832;13.816;2023-03-14T04:29:38;98820.44;;;11.51;75.20
17764;BME280;22245;52.832;13.816;2023-03-14T04:32:59;98827.16;;;11.47;74.59
17764;BME280;22245;52.832;13.816;2023-03-14T04:36:23;98806.56;;;11.40;75.03
17764;BME280;22245;52.832;13.816;2023-03-14T04:39:45;98813.72;;;11.40;75.19
17764;BME280;22245;52.832;13.816;2023-03-14T04:43:19;98809.88;;;11.42;74.75
17764;BME280;22245;52.832;13.816;2023-03-14T04:46:45;98804.72;;;11.41;74.88
17764;BME280;22245;52.832;13.816;2023-03-14T04:50:07;98792.94;;;11.35;74.46
17764;BME280;22245;52.832;13.816;2023-03-14T04:53:29;98790.94;;;11.37;74.67
17764;BME280;22245;52.832;13.816;2023-03-14T04:56:53;98787.63;;;11.35;74.32
17764;BME280;22245;52.832;13.816;2023-03-14T05:00:17;98781.94;;;11.38;74.38
17764;BME280;22245;52.832;13.816;2023-03-14T05:04:01;98772.63;;;11.34;74.89
17764;BME280;22245;52.832;13.816;2023-03-14T05:07:41;98763.63;;;11.35;74.99
17764;BME280;22245;52.832;13.816;2023-03-14T05:11:14;98757.97;;;11.38;73.96
17764;BME280;22245;52.832;13.816;2023-03-14T05:14:53;98765.56;;;11.41;74.06
17764;BME280;22245;52.832;13.816;2023-03-14T05:18:32;98759.88;;;11.44;73.81
17764;BME280;22245;52.832;13.816;2023-03-14T05:22:05;98756.09;;;11.39;73.56
17764;BME280;22245;52.832;13.816;2023-03-14T05:25:49;98755.63;;;11.35;74.04
17764;BME280;22245;52.832;13.816;2023-03-14T05:29:25;98751.16;;;11.36;73.84
17764;BME280;22245;52.832;13.816;2023-03-14T05:32:58;98750.03;;;11.30;73.76
17764;BME280;22245;52.832;13.816;2023-03-14T05:36:36;98745.06;;;11.27;73.81
17764;BME280;22245;52.832;13.816;2023-03-14T05:40:16;98739.69;;;11.20;73.54
17764;BME280;22245;52.832;13.816;2023-03-14T05:43:56;98738.19;;;11.18;73.91
17764;BME280;22245;52.832;13.816;2023-03-14T05:47:31;98747.56;;;11.13;74.26
17764;BME280;22245;52.832;13.816;2023-03-14T05:51:12;98746.72;;;11.13;74.48
17764;BME280;22245;52.832;13.816;2023-03-14T05:54:53;98745.44;;;11.09;74.26
17764;BME280;22245;52.832;13.816;2023-03-14T05:58:41;98745.28;;;11.10;73.49
17764;BME280;22245;52.832;13.816;2023-03-14T06:02:14;98761.25;;;11.10;73.77
17764;BME280;22245;52.832;13.816;2023-03-14T06:05:45;98745.28;;;11.10;74.17
17764;BME280;22245;52.832;13.816;2023-03-14T06:09:07;98758.41;;;11.12;73.10
17764;BME280;22245;52.832;13.816;2023-03-14T06:12:33;98745.56;;;11.15;73.38
17764;BME280;22245;52.832;13.816;2023-03-14T06:15:55;98745.44;;;11.09;73.13
17764;BME280;22245;52.832;13.816;2023-03-14T06:19:23;98746.94;;;11.11;73.11
17764;BME280;22245;52.832;13.816;2023-03-14T06:22:45;98742.03;;;11.15;72.60
17764;BME280;22245;52.832;13.816;2023-03-14T06:26:07;98746.38;;;11.16;72.98
17764;BME280;22245;52.832;13.816;2023-03-14T06:29:32;98751.88;;;11.14;73.27
17764;BME280;22245;52.832;13.816;2023-03-14T06:32:55;98760.53;;;11.17;72.28
17764;BME280;22245;52.832;13.816;2023-03-14T06:36:17;98767.97;;;11.21;72.26
17764;BME280;22245;52.832;13.816;2023-03-14T06:39:40;98753.00;;;11.20;72.62
17764;BME280;22245;52.832;13.816;2023-03-14T06:43:12;98762.06;;;11.26;72.16
17764;BME280;22245;52.832;13.816;2023-03-14T06:46:38;98764.56;;;11.27;71.89
17764;BME280;22245;52.832;13.816;2023-03-14T06:49:59;98761.53;;;11.31;71.65
17764;BME280;22245;52.832;13.816;2023-03-14T06:53:22;98753.34;;;11.32;71.46
17764;BME280;22245;52.832;13.816;2023-03-14T06:56:45;98753.16;;;11.34;70.42
17764;BME280;22245;52.832;13.816;2023-03-14T07:00:08;98770.72;;;11.28;70.96
17764;BME280;22245;52.832;13.816;2023-03-14T07:03:31;98768.97;;;11.35;70.77
17764;BME280;22245;52.832;13.816;2023-03-14T07:06:53;98773.94;;;11.38;70.81
17764;BME280;22245;52.832;13.816;2023-03-14T07:10:17;98781.38;;;11.28;70.39
17764;BME280;22245;52.832;13.816;2023-03-14T07:13:38;98775.94;;;11.36;69.91
17764;BME280;22245;52.832;13.816;2023-03-14T07:17:01;98788.56;;;11.42;70.50
17764;BME280;22245;52.832;13.816;2023-03-14T07:20:24;98773.19;;;11.44;70.37
17764;BME280;22245;52.832;13.816;2023-03-14T07:23:46;98795.16;;;11.47;69.56
17764;BME280;22245;52.832;13.816;2023-03-14T07:27:08;98805.63;;;11.48;69.67
17764;BME280;22245;52.832;13.816;2023-03-14T07:30:31;98801.94;;;11.49;69.36
17764;BME280;22245;52.832;13.816;2023-03-14T07:33:55;98808.22;;;11.41;69.12
17764;BME280;22245;52.832;13.816;2023-03-14T07:37:22;98800.88;;;11.43;69.45
17764;BME280;22245;52.832;13.816;2023-03-14T07:40:48;98801.31;;;11.47;68.36
17764;BME280;22245;52.832;13.816;2023-03-14T07:44:19;98808.13;;;11.50;68.80
17764;BME280;22245;52.832;13.816;2023-03-14T07:47:41;98810.03;;;11.56;68.70
17764;BME280;22245;52.832;13.816;2023-03-14T07:51:02;98812.59;;;11.64;68.93
17764;BME280;22245;52.832;13.816;2023-03-14T07:54:26;98816.53;;;11.68;68.45
17764;BME280;22245;52.832;13.816;2023-03-14T07:57:48;98813.97;;;11.75;68.35
17764;BME280;22245;52.832;13.816;2023-03-14T08:01:09;98805.81;;;11.77;67.36
17764;BME280;22245;52.832;13.816;2023-03-14T08:04:31;98819.41;;;11.82;67.56
17764;BME280;22245;52.832;13.816;2023-03-14T08:07:52;98819.03;;;11.85;66.69
17764;BME280;22245;52.832;13.816;2023-03-14T08:11:15;98817.75;;;11.81;66.40
17764;BME280;22245;52.832;13.816;2023-03-14T08:14:37;98806.31;;;11.87;66.67
17764;BME280;22245;52.832;13.816;2023-03-14T08:17:59;98805.94;;;11.90;67.08
17764;BME280;22245;52.832;13.816;2023-03-14T08:21:20;98802.06;;;11.93;66.22
17764;BME280;22245;52.832;13.816;2023-03-14T08:24:41;98812.56;;;11.94;66.68
17764;BME280;22245;52.832;13.816;2023-03-14T08:28:04;98808.69;;;11.97;66.24
17764;BME280;22245;52.832;13.816;2023-03-14T08:31:26;98795.81;;;12.00;66.18
17764;BME280;22245;52.832;13.816;2023-03-14T08:34:47;98805.75;;;12.07;66.00
17764;BME280;22245;52.832;13.816;2023-03-14T08:38:09;98801.63;;;12.04;65.90
17764;BME280;22245;52.832;13.816;2023-03-14T08:41:31;98801.69;;;12.11;66.06
17764;BME280;22245;52.832;13.816;2023-03-14T08:44:54;98811.25;;;12.20;65.60
17764;BME280;22245;52.832;13.816;2023-03-14T08:48:16;98810.66;;;12.25;65.63
17764;BME280;22245;52.832;13.816;2023-03-14T08:51:37;98811.91;;;12.29;64.71
17764;BME280;22245;52.832;13.816;2023-03-14T08:54:59;98806.88;;;12.34;64.51
17764;BME280;22245;52.832;13.816;2023-03-14T08:58:20;98809.88;;;12.31;65.49
17764;BME280;22245;52.832;13.816;2023-03-14T09:01:44;98813.66;;;12.37;65.36
17764;BME280;22245;52.832;13.816;2023-03-14T09:05:06;98807.16;;;12.46;65.46
17764;BME280;22245;52.832;13.816;2023-03-14T09:08:27;98815.06;;;12.54;65.10
17764;BME280;22245;52.832;13.816;2023-03-14T09:11:49;98822.31;;;12.61;64.61
17764;BME280;22245;52.832;13.816;2023-03-14T09:15:11;98816.63;;;12.70;64.74
17764;BME280;22245;52.832;13.816;2023-03-14T09:18:33;98817.44;;;12.71;63.99
17764;BME280;22245;52.832;13.816;2023-03-14T09:21:55;98810.31;;;12.78;63.49
17764;BME280;22245;52.832;13.816;2023-03-14T09:25:16;98803.16;;;12.85;63.76
17764;BME280;22245;52.832;13.816;2023-03-14T09:28:38;98815.16;;;12.90;62.85
17764;BME280;22245;52.832;13.816;2023-03-14T09:31:59;98806.47;;;12.87;62.26
17764;BME280;22245;52.832;13.816;2023-03-14T09:35:23;98799.47;;;12.86;62.82
17764;BME280;22245;52.832;13.816;2023-03-14T09:38:44;98802.59;;;12.90;62.34
17764;BME280;22245;52.832;13.816;2023-03-14T09:42:08;98809.81;;;12.90;62.64
17764;BME280;22245;52.832;13.816;2023-03-14T09:45:36;98802.81;;;12.88;62.30
17764;BME280;22245;52.832;13.816;2023-03-14T09:49:00;98788.22;;;12.91;62.24
17764;BME280;22245;52.832;13.816;2023-03-14T09:52:26;98792.94;;;12.89;61.68
17764;BME280;22245;52.832;13.816;2023-03-14T09:55:50;98787.41;;;12.91;62.33
17764;BME280;22245;52.832;13.816;2023-03-14T09:59:12;98787.66;;;12.96;61.89
17764;BME280;22245;52.832;13.816;2023-03-14T10:02:35;98787.09;;;13.07;60.87
17764;BME280;22245;52.832;13.816;2023-03-14T10:05:58;98790.41;;;13.09;60.54
17764;BME280;22245;52.832;13.816;2023-03-14T10:09:22;98806.88;;;13.13;59.62
17764;BME280;22245;52.832;13.816;2023-03-14T10:12:46;98793.13;;;13.16;59.39
17764;BME280;22245;52.832;13.816;2023-03-14T10:16:08;98795.75;;;13.09;59.90
17764;BME280;22245;52.832;13.816;2023-03-14T10:19:30;98812.84;;;13.15;60.39
17764;BME280;22245;52.832;13.816;2023-03-14T10:22:51;98811.63;;;13.17;59.91
17764;BME280;22245;52.832;13.816;2023-03-14T10:26:17;98809.97;;;13.16;59.42
17764;BME280;22245;52.832;13.816;2023-03-14T10:29:52;98825.63;;;13.20;58.61
17764;BME280;22245;52.832;13.816;2023-03-14T10:33:21;98811.38;;;13.12;58.86
17764;BME280;22245;52.832;13.816;2023-03-14T10:36:43;98811.16;;;13.07;58.74
17764;BME280;22245;52.832;13.816;2023-03-14T10:40:12;98818.31;;;13.07;58.91
17764;BME280;22245;52.832;13.816;2023-03-14T10:43:36;98813.63;;;13.09;59.02
17764;BME280;22245;52.832;13.816;2023-03-14T10:47:00;98816.09;;;13.10;59.01
17764;BME280;22245;52.832;13.816;2023-03-14T10:50:25;98811.22;;;13.14;59.06
17764;BME280;22245;52.832;13.816;2023-03-14T10:53:49;98818.16;;;13.08;58.50
17764;BME280;22245;52.832;13.816;2023-03-14T10:57:11;98812.81;;;13.08;57.99
17764;BME280;22245;52.832;13.816;2023-03-14T11:00:34;98818.19;;;13.15;58.25
17764;BME280;22245;52.832;13.816;2023-03-14T11:03:59;98811.22;;;13.14;58.79
17764;BME280;22245;52.832;13.816;2023-03-14T11:07:26;98821.13;;;13.20;58.32
17764;BME280;22245;52.832;13.816;2023-03-14T11:10:51;98821.13;;;13.20;58.54
17764;BME280;22245;52.832;13.816;2023-03-14T11:14:20;98825.22;;;13.23;58.79
17764;BME280;22245;52.832;13.816;2023-03-14T11:17:56;98831.47;;;13.30;59.24
17764;BME280;22245;52.832;13.816;2023-03-14T11:21:29;98821.78;;;13.29;58.62
17764;BME280;22245;52.832;13.816;2023-03-14T11:25:13;98832.09;;;13.32;59.08
17764;BME280;22245;52.832;13.816;2023-03-14T11:28:37;98828.38;;;13.33;58.48
17764;BME280;22245;52.832;13.816;2023-03-14T11:32:02;98820.78;;;13.30;58.30
17764;BME280;22245;52.832;13.816;2023-03-14T11:35:30;98826.13;;;13.30;58.47
17764;BME280;22245;52.832;13.816;2023-03-14T11:38:56;98812.97;;;13.35;58.58
17764;BME280;22245;52.832;13.816;2023-03-14T11:42:19;98813.59;;;13.37;58.00
17764;BME280;22245;52.832;13.816;2023-03-14T11:45:43;98809.50;;;13.41;58.89
17764;BME280;22245;52.832;13.816;2023-03-14T11:49:10;98808.88;;;13.39;58.83
17764;BME280;22245;52.832;13.816;2023-03-14T11:52:37;98809.16;;;13.44;58.80
17764;BME280;22245;52.832;13.816;2023-03-14T11:56:02;98811.34;;;13.41;58.35
17764;BME280;22245;52.832;13.816;2023-03-14T11:59:27;98806.84;;;13.41;58.47
17764;BME280;22245;52.832;13.816;2023-03-14T12:02:55;98794.56;;;13.47;58.88
17764;BME280;22245;52.832;13.816;2023-03-14T12:06:22;98799.53;;;13.50;59.11
17764;BME280;22245;52.832;13.816;2023-03-14T12:09:47;98798.91;;;13.55;58.48
17764;BME280;22245;52.832;13.816;2023-03-14T12:13:10;98802.41;;;13.55;58.26
17764;BME280;22245;52.832;13.816;2023-03-14T12:16:35;98797.25;;;13.54;58.31
17764;BME280;22245;52.832;13.816;2023-03-14T12:20:05;98803.22;;;13.56;59.62
17764;BME280;22245;52.832;13.816;2023-03-14T12:23:40;98809.78;;;13.46;60.15
17764;BME280;22245;52.832;13.816;2023-03-14T12:27:05;98808.34;;;13.51;61.64
17764;BME280;22245;52.832;13.816;2023-03-14T12:30:30;98793.78;;;13.53;62.50
17764;BME280;22245;52.832;13.816;2023-03-14T12:34:01;98794.13;;;13.43;62.64
17764;BME280;22245;52.832;13.816;2023-03-14T12:37:28;98795.38;;;13.48;63.28
17764;BME280;22245;52.832;13.816;2023-03-14T12:40:57;98805.84;;;13.42;64.01
17764;BME280;22245;52.832;13.816;2023-03-14T12:44:41;98804.50;;;13.31;64.54
17764;BME280;22245;52.832;13.816;2023-03-14T12:48:09;98819.97;;;13.36;65.39
17764;BME280;22245;52.832;13.816;2023-03-14T12:51:35;98817.88;;;13.31;66.94
17764;BME280;22245;52.832;13.816;2023-03-14T12:54:59;98805.94;;;13.27;68.50
17764;BME280;22245;52.832;13.816;2023-03-14T12:58:28;98796.25;;;13.26;69.33
17764;BME280;22245;52.832;13.816;2023-03-14T13:01:56;98794.38;;;13.20;69.85
17764;BME280;22245;52.832;13.816;2023-03-14T13:05:19;98795.75;;;13.09;70.04
17764;BME280;22245;52.832;13.816;2023-03-14T13:08:45;98779.94;;;13.14;70.26
17764;BME280;22245;52.832;13.816;2023-03-14T13:12:10;98777.50;;;13.20;70.95
17764;BME280;22245;52.832;13.816;2023-03-14T13:15:34;98776.53;;;13.27;70.63
17764;BME280;22245;52.832;13.816;2023-03-14T13:19:04;98764.47;;;13.38;70.08
17764;BME280;22245;52.832;13.816;2023-03-14T13:22:33;98761.84;;;13.45;68.88
17764;BME280;22245;52.832;13.816;2023-03-14T13:25:58;98753.84;;;13.52;68.94
17764;BME280;22245;52.832;13.816;2023-03-14T13:29:22;98755.09;;;13.56;67.24
17764;BME280;22245;52.832;13.816;2023-03-14T13:32:45;98756.16;;;13.62;66.36
17764;BME280;22245;52.832;13.816;2023-03-14T13:36:09;98751.38;;;13.57;65.97
17764;BME280;22245;52.832;13.816;2023-03-14T13:39:31;98746.25;;;13.62;66.13
17764;BME280;22245;52.832;13.816;2023-03-14T13:43:15;98746.91;;;13.64;65.34
17764;BME280;22245;52.832;13.816;2023-03-14T13:46:38;98735.41;;;13.70;65.19
17764;BME280;22245;52.832;13.816;2023-03-14T13:49:59;98736.25;;;13.78;64.90
17764;BME280;22245;52.832;13.816;2023-03-14T13:53:23;98729.66;;;13.73;63.67
17764;BME280;22245;52.832;13.816;2023-03-14T13:56:46;98748.16;;;13.75;63.52
17764;BME280;22245;52.832;13.816;2023-03-14T14:00:17;98734.63;;;13.83;63.41
17764;BME280;22245;52.832;13.816;2023-03-14T14:03:41;98736.66;;;13.81;62.22
17764;BME280;22245;52.832;13.816;2023-03-14T14:07:06;98744.06;;;13.72;62.31
17764;BME280;22245;52.832;13.816;2023-03-14T14:10:37;98735.00;;;13.73;63.00
17764;BME280;22245;52.832;13.816;2023-03-14T14:13:59;98737.06;;;13.78;63.87
17764;BME280;22245;52.832;13.816;2023-03-14T14:17:25;98733.59;;;13.84;62.99
17764;BME280;22245;52.832;13.816;2023-03-14T14:20:49;98730.69;;;13.86;63.20
17764;BME280;22245;52.832;13.816;2023-03-14T14:24:12;98734.00;;;13.88;62.59
17764;BME280;22245;52.832;13.816;2023-03-14T14:27:38;98725.56;;;13.91;63.12
17764;BME280;22245;52.832;13.816;2023-03-14T14:31:04;98728.88;;;14.00;62.40
17764;BME280;22245;52.832;13.816;2023-03-14T14:34:26;98721.50;;;14.09;61.26
17764;BME280;22245;52.832;13.816;2023-03-14T14:37:48;98713.44;;;14.15;60.97
17764;BME280;22245;52.832;13.816;2023-03-14T14:41:11;98717.59;;;14.18;61.41
17764;BME280;22245;52.832;13.816;2023-03-14T14:44:34;98721.69;;;14.27;60.63
17764;BME280;22245;52.832;13.816;2023-03-14T14:48:03;98721.91;;;14.32;60.92
17764;BME280;22245;52.832;13.816;2023-03-14T14:51:30;98708.53;;;14.39;61.09
17764;BME280;22245;52.832;13.816;2023-03-14T14:54:57;98704.81;;;14.40;60.71
17764;BME280;22245;52.832;13.816;2023-03-14T14:58:23;98697.81;;;14.39;61.70
17764;BME280;22245;52.832;13.816;2023-03-14T15:01:47;98701.09;;;14.35;62.36
17764;BME280;22245;52.832;13.816;2023-03-14T15:05:12;98706.69;;;14.33;61.84
17764;BME280;22245;52.832;13.816;2023-03-14T15:08:34;98714.91;;;14.25;62.13
17764;BME280;22245;52.832;13.816;2023-03-14T15:11:55;98727.66;;;14.09;62.72
17764;BME280;22245;52.832;13.816;2023-03-14T15:15:17;98729.53;;;14.09;62.59
17764;BME280;22245;52.832;13.816;2023-03-14T15:18:40;98728.28;;;14.04;61.84
17764;BME280;22245;52.832;13.816;2023-03-14T15:22:03;98747.41;;;13.95;62.68
17764;BME280;22245;52.832;13.816;2023-03-14T15:25:26;98744.28;;;13.91;64.87
17764;BME280;22245;52.832;13.816;2023-03-14T15:29:09;98754.38;;;13.89;67.35
17764;BME280;22245;52.832;13.816;2023-03-14T15:32:32;98836.16;;;13.56;69.46
17764;BME280;22245;52.832;13.816;2023-03-14T15:35:55;98951.72;;;12.43;67.04
17764;BME280;22245;52.832;13.816;2023-03-14T15:39:17;99004.56;;;11.26;67.33
17764;BME280;22245;52.832;13.816;2023-03-14T15:42:39;99026.84;;;9.40;69.92
17764;BME280;22245;52.832;13.816;2023-03-14T15:46:01;99082.44;;;8.66;72.31
17764;BME280;22245;52.832;13.816;2023-03-14T15:49:23;99121.34;;;8.22;73.26
17764;BME280;22245;52.832;13.816;2023-03-14T15:52:46;99147.22;;;7.48;72.36
17764;BME280;22245;52.832;13.816;2023-03-14T15:56:11;99179.94;;;6.83;72.21
17764;BME280;22245;52.832;13.816;2023-03-14T15:59:33;99194.13;;;6.24;74.10
17764;BME280;22245;52.832;13.816;2023-03-14T16:02:55;99217.19;;;5.63;73.39
17764;BME280;22245;52.832;13.816;2023-03-14T16:06:17;99223.13;;;5.35;73.55
17764;BME280;22245;52.832;13.816;2023-03-14T16:09:40;99241.91;;;5.11;75.20
17764;BME280;22245;52.832;13.816;2023-03-14T16:13:03;99246.00;;;4.84;75.43
17764;BME280;22245;52.832;13.816;2023-03-14T16:16:24;99250.25;;;4.75;75.12
17764;BME280;22245;52.832;13.816;2023-03-14T16:19:46;99267.16;;;4.52;74.41
17764;BME280;22245;52.832;13.816;2023-03-14T16:23:08;99294.59;;;4.28;76.02
17764;BME280;22245;52.832;13.816;2023-03-14T16:26:31;99311.53;;;3.81;76.53
17764;BME280;22245;52.832;13.816;2023-03-14T16:29:54;99314.78;;;3.62;78.08
17764;BME280;22245;52.832;13.816;2023-03-14T16:33:17;99340.41;;;3.60;78.40
17764;BME280;22245;52.832;13.816;2023-03-14T16:36:39;99346.97;;;3.43;78.34
17764;BME280;22245;52.832;13.816;2023-03-14T16:40:00;99370.16;;;3.15;79.42
17764;BME280;22245;52.832;13.816;2023-03-14T16:43:33;99386.03;;;3.02;80.85
17764;BME280;22245;52.832;13.816;2023-03-14T16:46:57;99419.34;;;2.90;81.65
17764;BME280;22245;52.832;13.816;2023-03-14T16:50:18;99434.97;;;2.80;82.56
17764;BME280;22245;52.832;13.816;2023-03-14T16:53:40;99459.72;;;2.78;83.68
17764;BME280;22245;52.832;13.816;2023-03-14T16:57:02;99478.94;;;2.78;82.94
17764;BME280;22245;52.832;13.816;2023-03-14T17:00:25;99504.63;;;2.74;82.99
17764;BME280;22245;52.832;13.816;2023-03-14T17:03:48;99514.47;;;2.59;83.05
17764;BME280;22245;52.832;13.816;2023-03-14T17:07:10;99508.84;;;2.64;84.00
17764;BME280;22245;52.832;13.816;2023-03-14T17:10:33;99515.72;;;2.54;83.01
17764;BME280;22245;52.832;13.816;2023-03-14T17:13:56;99532.59;;;2.38;83.61
17764;BME280;22245;52.832;13.816;2023-03-14T17:17:19;99538.91;;;2.36;83.77
17764;BME280;22245;52.832;13.816;2023-03-14T17:20:41;99550.03;;;2.39;84.13
17764;BME280;22245;52.832;13.816;2023-03-14T17:24:03;99554.88;;;2.45;84.74
17764;BME280;22245;52.832;13.816;2023-03-14T17:27:24;99567.78;;;2.49;84.54
17764;BME280;22245;52.832;13.816;2023-03-14T17:30:46;99598.38;;;2.50;84.25
17764;BME280;22245;52.832;13.816;2023-03-14T17:34:09;99619.84;;;2.43;84.49
17764;BME280;22245;52.832;13.816;2023-03-14T17:37:31;99628.03;;;2.39;84.96
17764;BME280;22245;52.832;13.816;2023-03-14T17:40:53;99620.34;;;2.36;84.93
17764;BME280;22245;52.832;13.816;2023-03-14T17:44:14;99631.28;;;2.42;86.06
17764;BME280;22245;52.832;13.816;2023-03-14T17:47:36;99643.25;;;2.46;85.82
17764;BME280;22245;52.832;13.816;2023-03-14T17:50:59;99673.75;;;2.49;85.58
17764;BME280;22245;52.832;13.816;2023-03-14T17:54:21;99688.25;;;2.55;85.79